Time;durP1;ratioP1;P1;durP2;ratioP2;P2;SDS_P1;SDS_P2;PMS_P1;PMS_P2;Temp;Humidity;BMP_temperature;BMP_pressure;BME280_temperature;BME280_humidity;BME280_pressure;Samples;Min_cycle;Max_cycle;Signal;HPM_P1;HPM_P2
2021/10/17 00:01:08;;;;;;;1.33;0.63;;;;;;;;;;5075760;28;20212;-86
2021/10/17 00:03:35;;;;;;;1.73;0.80;;;;;;;;;;5071816;28;20032;-85
2021/10/17 00:06:01;;;;;;;1.95;0.63;;;;;;;;;;5079314;28;20032;-86
2021/10/17 00:08:28;;;;;;;1.50;0.77;;;;;;;;;;5071267;28;20053;-86
2021/10/17 00:10:54;;;;;;;2.10;0.90;;;;;;;;;;5064455;28;20094;-86
2021/10/17 00:13:21;;;;;;;1.20;0.60;;;;;;;;;;5078698;28;20045;-85
2021/10/17 00:15:47;;;;;;;1.45;0.70;;;;;;;;;;5078605;28;20040;-83
2021/10/17 00:18:13;;;;;;;2.25;0.77;;;;;;;;;;5080713;28;20519;-83
2021/10/17 00:20:40;;;;;;;1.45;0.60;;;;;;;;;;5077686;28;20029;-82
2021/10/17 00:23:07;;;;;;;4.55;1.10;;;;;;;;;;5079534;28;20028;-84
2021/10/17 00:25:33;;;;;;;2.30;0.93;;;;;;;;;;5082468;28;20546;-83
2021/10/17 00:28:00;;;;;;;2.00;0.80;;;;;;;;;;5082287;28;20491;-85
2021/10/17 00:30:26;;;;;;;2.67;0.70;;;;;;;;;;5067228;28;20527;-86
2021/10/17 00:32:53;;;;;;;2.15;0.88;;;;;;;;;;5065585;28;20052;-85
2021/10/17 00:35:20;;;;;;;1.92;0.60;;;;;;;;;;5070133;28;20064;-86
2021/10/17 00:37:46;;;;;;;1.95;1.00;;;;;;;;;;5070112;28;20059;-85
2021/10/17 00:40:14;;;;;;;1.83;0.90;;;;;;;;;;5072248;28;20044;-86
2021/10/17 00:42:42;;;;;;;2.17;0.82;;;;;;;;;;5070074;28;20055;-85
2021/10/17 00:45:09;;;;;;;1.40;0.80;;;;;;;;;;5072760;28;20033;-86
2021/10/17 00:47:36;;;;;;;1.58;0.82;;;;;;;;;;5072132;28;20040;-86
2021/10/17 00:50:03;;;;;;;1.38;0.90;;;;;;;;;;5067537;28;20484;-85
2021/10/17 00:52:29;;;;;;;2.35;0.77;;;;;;;;;;5070509;28;20063;-85
2021/10/17 00:54:56;;;;;;;1.98;0.80;;;;;;;;;;5069674;28;20068;-85
2021/10/17 00:57:22;;;;;;;1.73;0.80;;;;;;;;;;5065770;28;20041;-85
2021/10/17 00:59:49;;;;;;;2.22;0.80;;;;;;;;;;5070129;28;20079;-85
2021/10/17 01:02:16;;;;;;;1.73;0.77;;;;;;;;;;5070923;28;20075;-85
2021/10/17 01:04:43;;;;;;;1.92;0.90;;;;;;;;;;5067266;28;20170;-85
2021/10/17 01:07:09;;;;;;;2.15;0.90;;;;;;;;;;5065096;28;20071;-85
2021/10/17 01:09:36;;;;;;;1.35;0.77;;;;;;;;;;5069295;28;20840;-85
2021/10/17 01:12:03;;;;;;;1.83;0.70;;;;;;;;;;5068136;28;20056;-86
2021/10/17 01:14:29;;;;;;;2.08;0.60;;;;;;;;;;5080887;28;20071;-86
2021/10/17 01:16:56;;;;;;;1.60;0.90;;;;;;;;;;5070492;28;20036;-86
2021/10/17 01:19:22;;;;;;;3.22;1.00;;;;;;;;;;5069808;28;20063;-86
2021/10/17 01:21:49;;;;;;;2.72;0.90;;;;;;;;;;5068105;28;20060;-87
2021/10/17 01:24:17;;;;;;;1.80;0.70;;;;;;;;;;5073654;28;20059;-85
2021/10/17 01:26:44;;;;;;;1.67;0.88;;;;;;;;;;5067865;28;20484;-86
2021/10/17 01:29:11;;;;;;;2.03;0.80;;;;;;;;;;5071306;28;20115;-87
2021/10/17 01:31:38;;;;;;;1.52;0.70;;;;;;;;;;5072707;28;20052;-86
2021/10/17 01:34:06;;;;;;;1.63;0.60;;;;;;;;;;5072650;28;21472;-86
2021/10/17 01:36:34;;;;;;;1.45;0.65;;;;;;;;;;5069509;28;20054;-86
2021/10/17 01:39:01;;;;;;;1.90;0.68;;;;;;;;;;5067832;28;20060;-86
2021/10/17 01:41:28;;;;;;;2.28;0.70;;;;;;;;;;5057352;28;20103;-86
2021/10/17 01:43:54;;;;;;;1.75;0.65;;;;;;;;;;5069655;28;20487;-87
2021/10/17 01:46:20;;;;;;;1.08;0.68;;;;;;;;;;5073986;28;20146;-87
2021/10/17 01:48:47;;;;;;;2.78;0.88;;;;;;;;;;5070761;28;20040;-86
2021/10/17 01:51:13;;;;;;;2.15;1.08;;;;;;;;;;5068261;28;20102;-86
2021/10/17 01:53:40;;;;;;;1.48;0.60;;;;;;;;;;5062033;28;20514;-85
2021/10/17 01:56:06;;;;;;;1.80;0.80;;;;;;;;;;5059614;28;20041;-86
2021/10/17 01:58:32;;;;;;;1.70;0.80;;;;;;;;;;5066392;28;20082;-86
2021/10/17 02:01:00;;;;;;;1.92;0.90;;;;;;;;;;5063912;28;20417;-85
2021/10/17 02:03:26;;;;;;;1.52;0.70;;;;;;;;;;5071035;28;20059;-86
2021/10/17 02:05:52;;;;;;;3.13;0.80;;;;;;;;;;5068186;28;20029;-86
2021/10/17 02:08:19;;;;;;;2.88;0.80;;;;;;;;;;5069451;28;20048;-86
2021/10/17 02:10:45;;;;;;;1.77;0.68;;;;;;;;;;5065211;28;20735;-85
2021/10/17 02:13:12;;;;;;;1.42;0.82;;;;;;;;;;5056876;28;20520;-86
2021/10/17 02:15:38;;;;;;;1.55;0.75;;;;;;;;;;5069680;28;20045;-85
2021/10/17 02:18:04;;;;;;;2.97;0.70;;;;;;;;;;5066880;28;20052;-85
2021/10/17 02:20:34;;;;;;;1.27;0.57;;;;;;;;;;5065025;28;20060;-86
2021/10/17 02:23:01;;;;;;;1.77;0.80;;;;;;;;;;5061104;28;20040;-86
2021/10/17 02:25:28;;;;;;;2.38;0.90;;;;;;;;;;5064943;28;20055;-85
2021/10/17 02:27:54;;;;;;;2.72;0.77;;;;;;;;;;5062204;28;20036;-85
2021/10/17 02:30:21;;;;;;;1.60;0.60;;;;;;;;;;5073986;28;20047;-85
2021/10/17 02:32:47;;;;;;;1.80;0.90;;;;;;;;;;5062294;28;20036;-86
2021/10/17 02:35:14;;;;;;;2.28;0.93;;;;;;;;;;5072269;28;20067;-86
2021/10/17 02:37:40;;;;;;;1.42;0.70;;;;;;;;;;5060688;28;20067;-85
2021/10/17 02:40:07;;;;;;;1.33;0.70;;;;;;;;;;5067732;28;20072;-85
2021/10/17 02:42:33;;;;;;;2.50;0.90;;;;;;;;;;5068584;28;20055;-87
2021/10/17 02:45:00;;;;;;;1.17;0.70;;;;;;;;;;5070583;28;20051;-86
2021/10/17 02:47:26;;;;;;;1.88;0.70;;;;;;;;;;5069539;28;20044;-85
2021/10/17 02:49:53;;;;;;;2.03;0.70;;;;;;;;;;5067872;28;20059;-86
2021/10/17 02:52:19;;;;;;;1.80;0.80;;;;;;;;;;5067344;28;20443;-85
2021/10/17 02:54:46;;;;;;;2.13;0.80;;;;;;;;;;5073279;28;20076;-85
2021/10/17 02:57:12;;;;;;;2.00;0.80;;;;;;;;;;5069667;28;20029;-86
2021/10/17 02:59:38;;;;;;;3.13;0.90;;;;;;;;;;5069608;28;20056;-85
2021/10/17 03:02:05;;;;;;;1.00;0.65;;;;;;;;;;5058024;28;20033;-85
2021/10/17 03:04:31;;;;;;;1.58;0.80;;;;;;;;;;5068970;28;20079;-85
2021/10/17 03:06:58;;;;;;;1.25;0.60;;;;;;;;;;5061150;28;20060;-86
2021/10/17 03:09:24;;;;;;;1.63;0.77;;;;;;;;;;5067572;28;20433;-85
2021/10/17 03:11:51;;;;;;;1.08;0.60;;;;;;;;;;5066386;28;20073;-86
2021/10/17 03:14:17;;;;;;;1.92;0.80;;;;;;;;;;5067990;28;20114;-86
2021/10/17 03:16:45;;;;;;;1.38;0.70;;;;;;;;;;5067526;28;20060;-86
2021/10/17 03:19:12;;;;;;;1.65;0.60;;;;;;;;;;5064572;28;20070;-86
2021/10/17 03:21:39;;;;;;;2.03;0.70;;;;;;;;;;5069637;28;20051;-86
2021/10/17 03:24:05;;;;;;;1.63;0.60;;;;;;;;;;5068094;28;20036;-85
2021/10/17 03:26:32;;;;;;;1.98;0.75;;;;;;;;;;5062399;28;20064;-87
2021/10/17 03:28:58;;;;;;;2.15;0.65;;;;;;;;;;5064128;28;20531;-87
2021/10/17 03:31:25;;;;;;;1.42;0.80;;;;;;;;;;5072235;28;20064;-86
2021/10/17 03:33:51;;;;;;;1.58;0.80;;;;;;;;;;5066486;28;20436;-86
2021/10/17 03:36:18;;;;;;;1.92;0.88;;;;;;;;;;5067369;28;20064;-85
2021/10/17 03:38:44;;;;;;;1.95;0.90;;;;;;;;;;5066692;28;20448;-86
2021/10/17 03:41:13;;;;;;;2.28;0.80;;;;;;;;;;5069306;28;20036;-86
2021/10/17 03:43:40;;;;;;;1.30;0.50;;;;;;;;;;5066534;28;20029;-82
2021/10/17 03:46:06;;;;;;;1.38;0.70;;;;;;;;;;5075926;28;20029;-86
2021/10/17 03:48:33;;;;;;;2.03;0.82;;;;;;;;;;5073128;28;20040;-86
2021/10/17 03:50:59;;;;;;;1.42;0.73;;;;;;;;;;5069306;28;20060;-86
2021/10/17 03:53:26;;;;;;;1.27;0.80;;;;;;;;;;5065382;28;20044;-86
2021/10/17 03:55:52;;;;;;;2.40;0.82;;;;;;;;;;5070664;28;20067;-87
2021/10/17 03:58:18;;;;;;;1.40;0.80;;;;;;;;;;5073963;28;20068;-87
2021/10/17 04:00:45;;;;;;;1.90;0.80;;;;;;;;;;5070818;28;20566;-84
2021/10/17 04:03:12;;;;;;;2.22;0.90;;;;;;;;;;5067291;28;20075;-85
2021/10/17 04:05:38;;;;;;;1.38;0.98;;;;;;;;;;5067226;28;20067;-85
2021/10/17 04:08:05;;;;;;;1.45;0.70;;;;;;;;;;5071110;28;20507;-84
2021/10/17 04:10:31;;;;;;;3.47;1.23;;;;;;;;;;5069142;28;20056;-85
2021/10/17 04:12:57;;;;;;;2.33;0.80;;;;;;;;;;5067242;28;20056;-85
2021/10/17 04:15:24;;;;;;;2.08;0.77;;;;;;;;;;5065226;28;20068;-85
2021/10/17 04:17:50;;;;;;;1.48;0.70;;;;;;;;;;5063981;28;20145;-85
2021/10/17 04:20:16;;;;;;;2.83;1.00;;;;;;;;;;5073258;28;20056;-86
2021/10/17 04:22:43;;;;;;;1.80;0.80;;;;;;;;;;5072563;28;20063;-85
2021/10/17 04:25:09;;;;;;;1.40;0.82;;;;;;;;;;5065223;28;20067;-85
2021/10/17 04:27:36;;;;;;;1.35;0.75;;;;;;;;;;5076913;28;20083;-85
2021/10/17 04:30:06;;;;;;;2.85;0.90;;;;;;;;;;5076145;28;20032;-85
2021/10/17 04:32:32;;;;;;;2.10;0.95;;;;;;;;;;5071344;28;20500;-85
2021/10/17 04:34:59;;;;;;;1.60;0.80;;;;;;;;;;5066813;28;20060;-85
2021/10/17 04:37:27;;;;;;;1.58;0.70;;;;;;;;;;5068081;28;20067;-85
2021/10/17 04:39:53;;;;;;;2.25;0.80;;;;;;;;;;5066399;28;20074;-86
2021/10/17 04:42:20;;;;;;;1.92;0.85;;;;;;;;;;5069240;28;20052;-85
2021/10/17 04:44:46;;;;;;;1.80;0.70;;;;;;;;;;5070461;28;20139;-85
2021/10/17 04:47:13;;;;;;;0.82;0.50;;;;;;;;;;5071323;28;20028;-85
2021/10/17 04:49:39;;;;;;;1.70;0.65;;;;;;;;;;5071589;28;20063;-85
2021/10/17 04:52:05;;;;;;;1.95;0.60;;;;;;;;;;5070314;28;20816;-85
2021/10/17 04:54:32;;;;;;;0.90;0.60;;;;;;;;;;5069128;28;20440;-85
2021/10/17 04:56:58;;;;;;;1.67;0.65;;;;;;;;;;5070984;28;20032;-85
2021/10/17 04:59:25;;;;;;;1.58;0.88;;;;;;;;;;5070876;28;21185;-85
2021/10/17 05:01:51;;;;;;;3.15;0.73;;;;;;;;;;5069570;28;20039;-85
2021/10/17 05:04:18;;;;;;;2.90;0.77;;;;;;;;;;5069108;28;20393;-85
2021/10/17 05:06:45;;;;;;;1.67;0.88;;;;;;;;;;5066232;28;20021;-85
2021/10/17 05:09:11;;;;;;;1.90;0.80;;;;;;;;;;5069552;28;20029;-86
2021/10/17 05:11:38;;;;;;;2.60;0.80;;;;;;;;;;5069478;28;20037;-86
2021/10/17 05:14:04;;;;;;;3.20;0.85;;;;;;;;;;5066954;28;20075;-86
2021/10/17 05:16:30;;;;;;;1.52;0.60;;;;;;;;;;5070662;28;20055;-86
2021/10/17 05:18:57;;;;;;;2.17;0.80;;;;;;;;;;5063557;28;20091;-86
2021/10/17 05:21:24;;;;;;;1.67;0.90;;;;;;;;;;5059584;28;20060;-85
2021/10/17 05:23:51;;;;;;;2.80;0.90;;;;;;;;;;5070007;28;20076;-86
2021/10/17 05:26:18;;;;;;;0.95;0.60;;;;;;;;;;5068960;28;20090;-85
2021/10/17 05:28:45;;;;;;;1.20;0.60;;;;;;;;;;5070896;28;20063;-85
2021/10/17 05:31:11;;;;;;;1.67;0.80;;;;;;;;;;5068689;28;20036;-86
2021/10/17 05:33:39;;;;;;;1.30;0.85;;;;;;;;;;5069800;28;20056;-85
2021/10/17 05:36:05;;;;;;;1.20;0.60;;;;;;;;;;5069532;28;20032;-85
2021/10/17 05:38:32;;;;;;;2.30;0.68;;;;;;;;;;5069623;28;20040;-86
2021/10/17 05:40:58;;;;;;;1.48;0.90;;;;;;;;;;5070293;28;20041;-85
2021/10/17 05:43:25;;;;;;;1.40;0.68;;;;;;;;;;5068919;28;20086;-85
2021/10/17 05:45:51;;;;;;;2.10;0.93;;;;;;;;;;5065413;28;20067;-85
2021/10/17 05:48:18;;;;;;;1.92;0.80;;;;;;;;;;5066656;28;20052;-86
2021/10/17 05:50:44;;;;;;;2.05;0.90;;;;;;;;;;5055318;28;20049;-84
2021/10/17 05:53:10;;;;;;;1.50;0.65;;;;;;;;;;5070199;28;20052;-85
2021/10/17 05:55:39;;;;;;;1.42;0.85;;;;;;;;;;5070157;28;20452;-85
2021/10/17 05:58:05;;;;;;;2.55;0.85;;;;;;;;;;5070408;28;20040;-85
2021/10/17 06:00:31;;;;;;;1.27;0.65;;;;;;;;;;5069042;28;20109;-85
2021/10/17 06:02:58;;;;;;;1.70;0.80;;;;;;;;;;5069478;28;20071;-85
2021/10/17 06:05:24;;;;;;;1.95;0.70;;;;;;;;;;5069862;28;20056;-85
2021/10/17 06:07:51;;;;;;;1.67;0.70;;;;;;;;;;5067301;28;20068;-85
2021/10/17 06:10:17;;;;;;;1.48;0.70;;;;;;;;;;5068980;28;20060;-85
2021/10/17 06:12:44;;;;;;;2.22;0.75;;;;;;;;;;5068408;28;20060;-86
2021/10/17 06:15:10;;;;;;;1.40;0.70;;;;;;;;;;5067331;28;20064;-87
2021/10/17 06:17:37;;;;;;;1.25;0.60;;;;;;;;;;5073990;28;20036;-85
2021/10/17 06:20:04;;;;;;;1.30;0.80;;;;;;;;;;5068225;28;20029;-85
2021/10/17 06:22:31;;;;;;;1.00;0.70;;;;;;;;;;5070183;28;20063;-86
2021/10/17 06:24:57;;;;;;;2.67;0.82;;;;;;;;;;5069564;28;20056;-85
2021/10/17 06:27:24;;;;;;;1.20;0.63;;;;;;;;;;5067520;28;20055;-86
2021/10/17 06:29:50;;;;;;;1.25;0.80;;;;;;;;;;5068415;28;20087;-85
2021/10/17 06:32:17;;;;;;;2.10;0.90;;;;;;;;;;5070871;28;20032;-85
2021/10/17 06:34:43;;;;;;;2.40;0.80;;;;;;;;;;5065187;28;20062;-85
2021/10/17 06:37:09;;;;;;;0.90;0.68;;;;;;;;;;5063858;28;20056;-86
2021/10/17 06:39:36;;;;;;;1.05;0.70;;;;;;;;;;5068492;28;20040;-86
2021/10/17 06:42:02;;;;;;;2.05;0.80;;;;;;;;;;5068212;28;20138;-86
2021/10/17 06:44:28;;;;;;;1.55;0.88;;;;;;;;;;5068310;28;20069;-86
2021/10/17 06:46:55;;;;;;;1.77;0.73;;;;;;;;;;5070711;28;20054;-86
2021/10/17 06:49:21;;;;;;;0.98;0.77;;;;;;;;;;5070828;28;20087;-86
2021/10/17 06:51:48;;;;;;;2.22;0.65;;;;;;;;;;5065173;28;20052;-86
2021/10/17 06:54:14;;;;;;;1.52;0.65;;;;;;;;;;5066609;28;20036;-86
2021/10/17 06:56:41;;;;;;;1.88;0.73;;;;;;;;;;5067151;28;20048;-85
2021/10/17 06:59:08;;;;;;;1.67;0.70;;;;;;;;;;5068900;28;20051;-87
2021/10/17 07:01:34;;;;;;;1.55;0.63;;;;;;;;;;5066646;28;20037;-86
2021/10/17 07:04:01;;;;;;;1.73;0.70;;;;;;;;;;5069495;28;20033;-86
2021/10/17 07:06:27;;;;;;;1.27;0.70;;;;;;;;;;5069719;28;20072;-86
2021/10/17 07:08:53;;;;;;;2.90;0.80;;;;;;;;;;5069369;28;20055;-86
2021/10/17 07:11:20;;;;;;;1.17;0.70;;;;;;;;;;5068417;28;20056;-87
2021/10/17 07:13:46;;;;;;;1.33;0.80;;;;;;;;;;5071584;28;20025;-86
2021/10/17 07:16:13;;;;;;;2.67;0.70;;;;;;;;;;5077866;28;20090;-86
2021/10/17 07:18:39;;;;;;;1.58;0.88;;;;;;;;;;5066619;28;20182;-85
2021/10/17 07:21:06;;;;;;;1.77;0.63;;;;;;;;;;5065144;28;21363;-86
2021/10/17 07:23:32;;;;;;;2.33;0.65;;;;;;;;;;5072905;28;20049;-86
2021/10/17 07:25:58;;;;;;;1.48;0.65;;;;;;;;;;5070364;28;20075;-86
2021/10/17 07:28:25;;;;;;;1.42;0.88;;;;;;;;;;5066656;28;20064;-85
2021/10/17 07:30:52;;;;;;;2.05;0.90;;;;;;;;;;5070072;28;20065;-86
2021/10/17 07:33:18;;;;;;;1.50;0.80;;;;;;;;;;5072742;28;20032;-85
2021/10/17 07:35:45;;;;;;;1.92;0.88;;;;;;;;;;5073582;28;20071;-86
2021/10/17 07:38:11;;;;;;;2.80;1.00;;;;;;;;;;5075548;28;20444;-86
2021/10/17 07:40:37;;;;;;;2.35;0.90;;;;;;;;;;5072688;28;20040;-85
2021/10/17 07:43:04;;;;;;;1.90;0.88;;;;;;;;;;5071722;28;20032;-86
2021/10/17 07:45:32;;;;;;;2.30;1.00;;;;;;;;;;5072699;28;20059;-86
2021/10/17 07:47:58;;;;;;;1.85;0.75;;;;;;;;;;5073003;28;20485;-86
2021/10/17 07:50:24;;;;;;;3.08;1.00;;;;;;;;;;5073124;28;20061;-86
2021/10/17 07:52:51;;;;;;;1.70;0.57;;;;;;;;;;5073327;28;20090;-85
2021/10/17 07:55:17;;;;;;;2.28;0.73;;;;;;;;;;5073401;28;20048;-85
2021/10/17 07:57:44;;;;;;;2.03;0.90;;;;;;;;;;5071778;28;20068;-84
2021/10/17 08:00:11;;;;;;;2.28;1.08;;;;;;;;;;5072505;28;20048;-85
2021/10/17 08:02:37;;;;;;;1.33;0.70;;;;;;;;;;5072546;28;20465;-85
2021/10/17 08:05:04;;;;;;;3.17;0.70;;;;;;;;;;5067626;28;20044;-85
2021/10/17 08:07:30;;;;;;;1.27;0.65;;;;;;;;;;5072315;28;20467;-84
2021/10/17 08:09:57;;;;;;;1.65;0.77;;;;;;;;;;5069974;28;20452;-85
2021/10/17 08:12:23;;;;;;;1.48;0.70;;;;;;;;;;5072469;28;20489;-84
2021/10/17 08:14:49;;;;;;;1.73;1.08;;;;;;;;;;5068875;28;20068;-85
2021/10/17 08:17:16;;;;;;;1.30;0.77;;;;;;;;;;5062527;28;20063;-85
2021/10/17 08:19:42;;;;;;;2.22;0.70;;;;;;;;;;5069396;28;20470;-85
2021/10/17 08:22:08;;;;;;;1.77;0.80;;;;;;;;;;5069503;28;20076;-85
2021/10/17 08:24:35;;;;;;;2.03;0.80;;;;;;;;;;5068761;28;20060;-85
2021/10/17 08:27:01;;;;;;;1.98;0.80;;;;;;;;;;5069846;28;20504;-86
2021/10/17 08:29:28;;;;;;;1.48;0.57;;;;;;;;;;5070433;28;20071;-85
2021/10/17 08:31:54;;;;;;;1.92;0.70;;;;;;;;;;5071229;28;20063;-86
2021/10/17 08:34:20;;;;;;;1.15;0.65;;;;;;;;;;5071480;28;20068;-85
2021/10/17 08:36:47;;;;;;;1.50;0.60;;;;;;;;;;5068297;28;20561;-85
2021/10/17 08:39:13;;;;;;;1.58;0.60;;;;;;;;;;5070686;28;20052;-86
2021/10/17 08:41:40;;;;;;;2.80;0.73;;;;;;;;;;5068624;28;20058;-85
2021/10/17 08:44:06;;;;;;;2.35;0.85;;;;;;;;;;5070876;28;21826;-86
2021/10/17 08:46:33;;;;;;;1.58;0.90;;;;;;;;;;5069979;28;20036;-85
2021/10/17 08:49:00;;;;;;;1.10;0.50;;;;;;;;;;5063228;28;20060;-86
2021/10/17 08:51:26;;;;;;;1.40;0.68;;;;;;;;;;5077675;28;20048;-85
2021/10/17 08:53:53;;;;;;;1.02;0.70;;;;;;;;;;5067161;28;20060;-86
2021/10/17 08:56:20;;;;;;;2.50;0.80;;;;;;;;;;5070803;28;20056;-85
2021/10/17 08:58:47;;;;;;;1.60;0.90;;;;;;;;;;5063888;28;20068;-85
2021/10/17 09:01:16;;;;;;;2.58;0.70;;;;;;;;;;5066906;28;20094;-85
2021/10/17 09:03:42;;;;;;;1.10;0.73;;;;;;;;;;5069120;28;20033;-85
2021/10/17 09:06:19;;;;;;;1.25;0.65;;;;;;;;;;5063377;28;20036;-85
2021/10/17 09:08:45;;;;;;;1.27;0.70;;;;;;;;;;5058763;28;20032;-85
2021/10/17 09:11:12;;;;;;;1.35;0.80;;;;;;;;;;5061374;28;20082;-86
2021/10/17 09:13:57;;;;;;;1.85;0.80;;;;;;;;;;5065676;28;20091;-85
2021/10/17 09:16:24;;;;;;;1.55;0.60;;;;;;;;;;5067088;28;20148;-86
2021/10/17 09:19:05;;;;;;;1.65;0.70;;;;;;;;;;5070450;28;20037;-85
2021/10/17 09:21:31;;;;;;;1.75;0.75;;;;;;;;;;5069819;28;20060;-84
2021/10/17 09:23:58;;;;;;;1.38;0.52;;;;;;;;;;5066156;28;20041;-85
2021/10/17 09:26:24;;;;;;;1.02;0.60;;;;;;;;;;5070172;28;20503;-85
2021/10/17 09:28:51;;;;;;;1.80;0.68;;;;;;;;;;5066841;28;20052;-85
2021/10/17 09:31:18;;;;;;;2.20;0.75;;;;;;;;;;5069315;28;20028;-85
2021/10/17 09:33:47;;;;;;;1.55;0.55;;;;;;;;;;5064384;28;20040;-85
2021/10/17 09:36:30;;;;;;;2.13;1.00;;;;;;;;;;5069159;28;20067;-86
2021/10/17 09:39:10;;;;;;;1.27;0.60;;;;;;;;;;5066163;28;20048;-86
2021/10/17 09:41:47;;;;;;;0.95;0.50;;;;;;;;;;5064246;28;20050;-85
2021/10/17 09:44:13;;;;;;;3.38;0.70;;;;;;;;;;5061719;28;20024;-85
2021/10/17 09:46:54;;;;;;;1.55;0.80;;;;;;;;;;5066419;28;20056;-86
2021/10/17 09:49:30;;;;;;;1.48;0.90;;;;;;;;;;5072060;28;20321;-86
2021/10/17 09:52:18;;;;;;;1.42;0.60;;;;;;;;;;5067500;28;20064;-86
2021/10/17 09:54:46;;;;;;;1.60;0.60;;;;;;;;;;5067283;28;20137;-85
2021/10/17 09:57:12;;;;;;;1.30;0.60;;;;;;;;;;5068441;28;20078;-86
2021/10/17 09:59:39;;;;;;;1.10;0.70;;;;;;;;;;5070962;28;20029;-86
2021/10/17 10:02:08;;;;;;;0.63;0.50;;;;;;;;;;5069682;28;20052;-86
2021/10/17 10:04:36;;;;;;;1.10;0.60;;;;;;;;;;5069045;28;20033;-85
2021/10/17 10:07:02;;;;;;;1.60;0.65;;;;;;;;;;5066334;28;20035;-85
2021/10/17 10:09:30;;;;;;;0.85;0.60;;;;;;;;;;5072435;28;20043;-85
2021/10/17 10:11:56;;;;;;;1.50;0.70;;;;;;;;;;5058968;28;20033;-85
2021/10/17 10:14:23;;;;;;;3.50;0.70;;;;;;;;;;5068640;28;20040;-84
2021/10/17 10:16:53;;;;;;;1.45;0.85;;;;;;;;;;5059691;28;20078;-84
2021/10/17 10:19:20;;;;;;;1.85;0.80;;;;;;;;;;5060796;28;20033;-84
2021/10/17 10:21:46;;;;;;;2.28;0.75;;;;;;;;;;5057794;28;20114;-85
2021/10/17 10:24:13;;;;;;;1.73;0.85;;;;;;;;;;5066402;28;20029;-84
2021/10/17 10:26:41;;;;;;;2.05;0.70;;;;;;;;;;5065788;28;20593;-85
2021/10/17 10:29:07;;;;;;;2.45;0.70;;;;;;;;;;5064129;28;20121;-85
2021/10/17 10:31:52;;;;;;;2.00;0.63;;;;;;;;;;5072093;28;20086;-84
2021/10/17 10:34:22;;;;;;;1.05;0.52;;;;;;;;;;5067305;28;21416;-85
2021/10/17 10:36:57;;;;;;;1.85;0.75;;;;;;;;;;5069232;28;20059;-84
2021/10/17 10:39:32;;;;;;;2.78;0.80;;;;;;;;;;5062572;28;20098;-84
2021/10/17 10:42:02;;;;;;;2.78;0.70;;;;;;;;;;5068056;28;20105;-84
2021/10/17 10:44:31;;;;;;;1.25;0.70;;;;;;;;;;5067502;28;20609;-84
2021/10/17 10:46:59;;;;;;;2.28;0.80;;;;;;;;;;5071463;28;20032;-85
2021/10/17 10:49:47;;;;;;;2.65;0.80;;;;;;;;;;5070252;28;20059;-85
2021/10/17 10:52:29;;;;;;;1.25;0.68;;;;;;;;;;5066617;28;20588;-84
2021/10/17 10:54:55;;;;;;;;;;;;;;;;;;5069860;28;20117;-85
2021/10/17 10:57:31;;;;;;;1.73;0.70;;;;;;;;;;5072826;28;19924;-84
2021/10/17 11:00:04;;;;;;;1.40;0.60;;;;;;;;;;5070045;28;20091;-86
2021/10/17 11:02:30;;;;;;;2.03;0.60;;;;;;;;;;5066149;28;20400;-86
2021/10/17 11:04:57;;;;;;;1.67;0.77;;;;;;;;;;5066917;28;20082;-85
2021/10/17 11:07:30;;;;;;;1.40;0.70;;;;;;;;;;5058930;28;20076;-86
2021/10/17 11:09:57;;;;;;;1.38;0.60;;;;;;;;;;5067870;28;20557;-85
2021/10/17 11:12:39;;;;;;;3.20;0.80;;;;;;;;;;5068624;28;20032;-85
2021/10/17 11:15:05;;;;;;;;;;;;;;;;;;5065281;28;20060;-85
2021/10/17 11:17:32;;;;;;;1.98;0.88;;;;;;;;;;5068658;28;20287;-85
2021/10/17 11:19:58;;;;;;;2.63;0.90;;;;;;;;;;5063190;28;20106;-86
2021/10/17 11:22:25;;;;;;;1.88;0.70;;;;;;;;;;5068129;28;20068;-86
2021/10/17 11:24:52;;;;;;;2.50;0.75;;;;;;;;;;5067142;28;20531;-84
2021/10/17 11:27:18;;;;;;;1.88;0.75;;;;;;;;;;5067828;28;20033;-87
2021/10/17 11:29:45;;;;;;;1.92;0.60;;;;;;;;;;5064180;28;20033;-86
2021/10/17 11:32:19;;;;;;;2.08;0.77;;;;;;;;;;5071945;28;20036;-87
2021/10/17 11:34:55;;;;;;;2.05;0.90;;;;;;;;;;5068809;28;20094;-84
2021/10/17 11:37:26;;;;;;;1.48;0.80;;;;;;;;;;5065829;28;20080;-86
2021/10/17 11:40:03;;;;;;;1.45;0.70;;;;;;;;;;5066204;28;20033;-87
2021/10/17 11:42:30;;;;;;;2.03;0.70;;;;;;;;;;5068401;28;20068;-86
2021/10/17 11:44:57;;;;;;;1.65;0.80;;;;;;;;;;5063265;28;20061;-85
2021/10/17 11:47:24;;;;;;;2.15;0.75;;;;;;;;;;5056117;28;20040;-84
2021/10/17 11:49:50;;;;;;;2.33;0.70;;;;;;;;;;5075136;28;20028;-84
2021/10/17 11:52:18;;;;;;;1.90;0.75;;;;;;;;;;5083061;28;20032;-85
2021/10/17 11:54:48;;;;;;;1.88;0.80;;;;;;;;;;5074979;28;20040;-84
2021/10/17 11:57:28;;;;;;;2.42;0.80;;;;;;;;;;5088422;28;20059;-85
2021/10/17 11:59:57;;;;;;;1.35;0.60;;;;;;;;;;5078909;28;20037;-85
2021/10/17 12:02:36;;;;;;;2.05;0.70;;;;;;;;;;5085770;28;20037;-86
2021/10/17 12:05:07;;;;;;;1.83;0.73;;;;;;;;;;5077098;28;20033;-84
2021/10/17 12:07:33;;;;;;;1.88;0.68;;;;;;;;;;5078667;28;20037;-85
2021/10/17 12:10:03;;;;;;;1.55;0.70;;;;;;;;;;5079876;28;20037;-84
2021/10/17 12:12:33;;;;;;;1.17;0.40;;;;;;;;;;5081165;28;20363;-84
2021/10/17 12:15:00;;;;;;;4.40;0.90;;;;;;;;;;5084843;28;20041;-85
2021/10/17 12:17:27;;;;;;;1.45;0.70;;;;;;;;;;5083377;28;20067;-84
2021/10/17 12:20:07;;;;;;;1.73;0.60;;;;;;;;;;5085485;28;20021;-84
2021/10/17 12:22:33;;;;;;;1.45;0.50;;;;;;;;;;5094020;28;20029;-85
2021/10/17 12:25:00;;;;;;;1.50;0.68;;;;;;;;;;5093650;28;20032;-86
2021/10/17 12:27:38;;;;;;;1.38;0.63;;;;;;;;;;5095813;28;20028;-85
2021/10/17 12:30:05;;;;;;;2.03;0.60;;;;;;;;;;5096675;28;20456;-85
2021/10/17 12:32:51;;;;;;;2.42;0.80;;;;;;;;;;5092278;28;20067;-87
2021/10/17 12:35:17;;;;;;;1.55;0.70;;;;;;;;;;5092586;28;20140;-85
2021/10/17 12:37:43;;;;;;;1.60;0.70;;;;;;;;;;5083788;28;20028;-87
2021/10/17 12:40:10;;;;;;;1.60;0.70;;;;;;;;;;5082946;28;20063;-84
2021/10/17 12:42:46;;;;;;;1.25;0.60;;;;;;;;;;5078736;28;20098;-84
2021/10/17 12:45:14;;;;;;;1.75;0.65;;;;;;;;;;5082523;28;20033;-88
2021/10/17 12:47:41;;;;;;;1.80;0.73;;;;;;;;;;5078082;28;20043;-85
2021/10/17 12:50:15;;;;;;;1.85;0.60;;;;;;;;;;5066525;28;21313;-82
2021/10/17 12:52:41;;;;;;;2.15;0.77;;;;;;;;;;5071937;28;20087;-84
2021/10/17 12:55:12;;;;;;;2.55;0.60;;;;;;;;;;5071334;28;20033;-84
2021/10/17 12:57:38;;;;;;;2.25;0.70;;;;;;;;;;5077525;28;20054;-84
2021/10/17 13:00:05;;;;;;;1.55;0.60;;;;;;;;;;5072553;28;20040;-83
2021/10/17 13:02:38;;;;;;;0.57;0.30;;;;;;;;;;5067731;28;20166;-84
2021/10/17 13:05:08;;;;;;;1.83;0.50;;;;;;;;;;5070987;28;20028;-83
2021/10/17 13:07:34;;;;;;;2.33;0.70;;;;;;;;;;5074473;28;20048;-83
2021/10/17 13:10:12;;;;;;;1.17;0.50;;;;;;;;;;5061881;28;20126;-83
2021/10/17 13:12:38;;;;;;;1.92;0.50;;;;;;;;;;5063228;28;20029;-85
2021/10/17 13:15:06;;;;;;;1.40;0.70;;;;;;;;;;5073589;28;20044;-84
2021/10/17 13:17:33;;;;;;;1.27;0.60;;;;;;;;;;5070516;28;20036;-84
2021/10/17 13:20:02;;;;;;;2.25;0.60;;;;;;;;;;5068055;28;20032;-84
2021/10/17 13:22:28;;;;;;;2.42;0.50;;;;;;;;;;5075698;28;20033;-84
2021/10/17 13:24:55;;;;;;;1.58;0.60;;;;;;;;;;5052271;28;20028;-85
2021/10/17 13:27:21;;;;;;;2.83;0.68;;;;;;;;;;5065233;28;20602;-85
2021/10/17 13:29:47;;;;;;;2.13;0.88;;;;;;;;;;5058019;28;20090;-85
2021/10/17 13:32:14;;;;;;;0.80;0.40;;;;;;;;;;5067645;28;20055;-85
2021/10/17 13:34:41;;;;;;;1.63;0.50;;;;;;;;;;5062665;28;20068;-85
2021/10/17 13:37:09;;;;;;;0.82;0.50;;;;;;;;;;5066948;28;20108;-85
2021/10/17 13:39:35;;;;;;;1.33;0.70;;;;;;;;;;5068424;28;20067;-85
2021/10/17 13:42:01;;;;;;;1.30;0.50;;;;;;;;;;5058474;28;20060;-85
2021/10/17 13:44:28;;;;;;;1.88;0.60;;;;;;;;;;5066146;28;20049;-84
2021/10/17 13:46:54;;;;;;;1.67;0.50;;;;;;;;;;5067281;28;20507;-85
2021/10/17 13:49:21;;;;;;;0.68;0.43;;;;;;;;;;5070373;28;20101;-85
2021/10/17 13:51:47;;;;;;;3.45;0.60;;;;;;;;;;5068468;28;20067;-84
2021/10/17 13:54:14;;;;;;;1.77;0.65;;;;;;;;;;5070943;28;20507;-84
2021/10/17 13:56:40;;;;;;;1.13;0.50;;;;;;;;;;5068118;28;20453;-84
2021/10/17 13:59:06;;;;;;;1.35;0.57;;;;;;;;;;5068322;28;20083;-84
2021/10/17 14:01:33;;;;;;;1.77;0.50;;;;;;;;;;5066878;28;20056;-84
2021/10/17 14:03:59;;;;;;;1.77;0.52;;;;;;;;;;5067758;28;20469;-84
2021/10/17 14:06:25;;;;;;;1.27;0.50;;;;;;;;;;5068052;28;20079;-84
2021/10/17 14:08:52;;;;;;;2.70;0.60;;;;;;;;;;5064608;28;20036;-84
2021/10/17 14:11:18;;;;;;;0.73;0.45;;;;;;;;;;5063242;28;20056;-84
2021/10/17 14:13:45;;;;;;;1.63;0.60;;;;;;;;;;5067380;28;20071;-84
2021/10/17 14:16:11;;;;;;;0.70;0.38;;;;;;;;;;5068693;28;20558;-84
2021/10/17 14:18:39;;;;;;;1.15;0.50;;;;;;;;;;5066508;28;20036;-84
2021/10/17 14:21:05;;;;;;;1.48;0.55;;;;;;;;;;5066436;28;20036;-84
2021/10/17 14:23:32;;;;;;;2.30;0.70;;;;;;;;;;5066192;28;20064;-84
2021/10/17 14:25:58;;;;;;;1.15;0.40;;;;;;;;;;5057772;28;20504;-84
2021/10/17 14:28:25;;;;;;;0.68;0.40;;;;;;;;;;5063503;28;20078;-84
2021/10/17 14:30:51;;;;;;;1.42;0.52;;;;;;;;;;5066832;28;20064;-83
2021/10/17 14:33:17;;;;;;;1.05;0.50;;;;;;;;;;5063919;28;20056;-83
2021/10/17 14:35:44;;;;;;;1.63;0.50;;;;;;;;;;5067658;28;20056;-83
2021/10/17 14:38:10;;;;;;;0.82;0.43;;;;;;;;;;5064211;28;20109;-85
2021/10/17 14:40:36;;;;;;;1.88;0.75;;;;;;;;;;5061192;28;20060;-84
2021/10/17 14:43:03;;;;;;;1.05;0.55;;;;;;;;;;5066908;28;20511;-84
2021/10/17 14:45:29;;;;;;;2.42;0.65;;;;;;;;;;5065885;28;20064;-83